createdAt,value
2022-12-15T00:02:21.653Z,99558.50
2022-12-15T00:05:08.740Z,99552.47
2022-12-15T00:07:55.921Z,99549.84
2022-12-15T00:10:42.762Z,99539.47
2022-12-15T00:13:32.868Z,99542.72
2022-12-15T00:16:19.705Z,99542.56
2022-12-15T00:19:06.243Z,99545.91
2022-12-15T00:21:52.782Z,99548.34
2022-12-15T00:24:39.455Z,99538.97
2022-12-15T00:27:26.131Z,99536.38
2022-12-15T00:30:12.644Z,99530.28
2022-12-15T00:32:59.125Z,99534.41
2022-12-15T00:35:45.640Z,99539.47
2022-12-15T00:38:34.245Z,99540.94
2022-12-15T00:41:01.847Z,99542.56
2022-12-15T00:43:32.812Z,99545.00
2022-12-15T00:46:20.512Z,99538.22
2022-12-15T00:48:47.765Z,99534.72
2022-12-15T00:51:15.308Z,99541.38
2022-12-15T00:54:02.646Z,99543.13
2022-12-15T00:56:50.114Z,99548.81
2022-12-15T00:59:37.138Z,99544.41
2022-12-15T01:02:24.128Z,99547.56
2022-12-15T01:05:10.686Z,99557.50
2022-12-15T01:07:57.160Z,99563.50
2022-12-15T01:10:43.938Z,99561.69
2022-12-15T01:13:33.602Z,99550.56
2022-12-15T01:16:20.414Z,99562.88
2022-12-15T01:19:06.980Z,99551.03
2022-12-15T01:21:34.948Z,99561.00
2022-12-15T01:24:02.734Z,99553.41
2022-12-15T01:26:31.009Z,99560.19
2022-12-15T01:28:58.675Z,99567.78
2022-12-15T01:31:27.106Z,99561.78
2022-12-15T01:33:56.003Z,99560.91
2022-12-15T01:36:24.009Z,99554.84
2022-12-15T01:38:54.266Z,99557.38
2022-12-15T01:41:23.466Z,99555.59
2022-12-15T01:43:52.027Z,99554.69
2022-12-15T01:46:23.588Z,99550.34
2022-12-15T01:49:12.745Z,99544.41
2022-12-15T01:51:44.962Z,99542.69
2022-12-15T01:54:16.890Z,99546.84
2022-12-15T01:56:46.615Z,99545.84
2022-12-15T01:59:19.727Z,99545.84
2022-12-15T02:01:49.754Z,99551.75
2022-12-15T02:04:20.032Z,99554.91
2022-12-15T02:06:46.735Z,99564.16
2022-12-15T02:09:13.964Z,99561.47
2022-12-15T02:17:19.927Z,99554.25
2022-12-15T02:20:26.486Z,99561.00
2022-12-15T02:28:13.393Z,99563.34
2022-12-15T02:33:25.434Z,99564.16
2022-12-15T02:38:35.478Z,99576.47
2022-12-15T02:41:04.744Z,99586.47
2022-12-15T02:43:36.391Z,99582.94
2022-12-15T02:59:48.148Z,99601.78
2022-12-15T03:02:16.049Z,99595.09
2022-12-15T03:04:43.473Z,99595.19
2022-12-15T03:07:13.337Z,99596.03
2022-12-15T03:09:39.932Z,99590.13
2022-12-15T03:12:06.949Z,99601.09
2022-12-15T03:14:33.618Z,99587.66
2022-12-15T03:17:00.830Z,99590.97
2022-12-15T03:19:27.434Z,99585.94
2022-12-15T03:21:54.198Z,99586.72
2022-12-15T03:24:21.045Z,99586.63
2022-12-15T03:26:50.203Z,99582.47
2022-12-15T03:29:18.151Z,99578.97
2022-12-15T03:31:45.460Z,99589.09
2022-12-15T03:34:12.703Z,99590.69
2022-12-15T03:36:39.340Z,99593.19
2022-12-15T03:39:06.274Z,99590.50
2022-12-15T03:41:32.886Z,99590.34
2022-12-15T03:43:59.537Z,99587.72
2022-12-15T03:46:26.943Z,99588.44
2022-12-15T03:48:54.209Z,99589.31
2022-12-15T03:51:21.488Z,99581.66
2022-12-15T03:53:49.380Z,99582.50
2022-12-15T03:56:16.986Z,99582.50
2022-12-15T03:58:43.754Z,99575.81
2022-12-15T04:01:26.348Z,99576.59
2022-12-15T04:03:58.542Z,99569.78
2022-12-15T04:06:27.681Z,99574.00
2022-12-15T04:08:54.301Z,99574.72
2022-12-15T04:11:21.149Z,99580.53
2022-12-15T04:13:48.063Z,99578.78
2022-12-15T04:16:19.594Z,99583.75
2022-12-15T04:18:47.350Z,99576.09
2022-12-15T04:21:13.907Z,99582.75
2022-12-15T04:24:00.384Z,99586.03
2022-12-15T04:26:46.835Z,99581.69
2022-12-15T04:29:33.431Z,99582.56
2022-12-15T04:32:19.934Z,99578.22
2022-12-15T04:35:06.417Z,99590.78
2022-12-15T04:37:52.990Z,99584.00
2022-12-15T04:40:39.499Z,99589.81
2022-12-15T04:43:25.995Z,99582.06
2022-12-15T04:46:12.824Z,99581.13
2022-12-15T04:48:59.348Z,99580.16
2022-12-15T04:51:45.817Z,99580.00
2022-12-15T04:54:32.386Z,99584.00
2022-12-15T04:57:18.860Z,99584.72
2022-12-15T05:00:05.445Z,99592.91
2022-12-15T05:02:52.028Z,99585.34
2022-12-15T05:05:38.531Z,99579.31
2022-12-15T05:08:25.174Z,99592.72
2022-12-15T05:11:11.760Z,99577.59
2022-12-15T05:13:58.293Z,99586.81
2022-12-15T05:16:44.991Z,99583.34
2022-12-15T05:19:31.483Z,99586.56
2022-12-15T05:22:17.998Z,99592.41
2022-12-15T05:25:04.483Z,99593.09
2022-12-15T05:27:50.981Z,99586.31
2022-12-15T05:30:37.559Z,99591.25
2022-12-15T05:33:05.454Z,99601.34
2022-12-15T05:35:32.024Z,99596.22
2022-12-15T05:37:58.592Z,99589.44
2022-12-15T05:40:25.142Z,99591.88
2022-12-15T05:42:51.707Z,99601.97
2022-12-15T05:45:18.317Z,99596.75
2022-12-15T05:47:51.594Z,99591.69
2022-12-15T05:50:18.389Z,99590.69
2022-12-15T05:52:49.157Z,99588.06
2022-12-15T05:55:17.512Z,99589.63
2022-12-15T05:57:44.092Z,99596.44
2022-12-15T06:00:11.091Z,99595.53
2022-12-15T06:02:37.735Z,99591.38
2022-12-15T06:05:04.733Z,99594.75
2022-12-15T06:07:31.354Z,99594.84
2022-12-15T06:09:57.928Z,99598.34
2022-12-15T06:12:24.468Z,99605.28
2022-12-15T06:14:51.037Z,99604.59
2022-12-15T06:17:17.582Z,99606.31
2022-12-15T06:19:44.162Z,99600.56
2022-12-15T06:22:10.806Z,99609.09
2022-12-15T06:24:37.405Z,99604.06
2022-12-15T06:27:04.620Z,99618.41
2022-12-15T06:29:31.359Z,99614.25
2022-12-15T06:31:58.004Z,99614.16
2022-12-15T06:34:24.858Z,99610.66
2022-12-15T06:36:51.433Z,99623.22
2022-12-15T06:39:18.318Z,99617.28
2022-12-15T06:41:45.397Z,99613.03
2022-12-15T06:44:15.047Z,99614.59
2022-12-15T06:46:42.162Z,99616.31
2022-12-15T06:49:09.181Z,99618.84
2022-12-15T06:51:36.458Z,99619.63
2022-12-15T06:54:03.034Z,99621.38
2022-12-15T06:56:34.839Z,99622.25
2022-12-15T06:59:03.596Z,99624.75
2022-12-15T07:01:31.328Z,99626.50
2022-12-15T07:04:03.223Z,99623.13
2022-12-15T07:06:36.692Z,99624.84
2022-12-15T07:09:05.107Z,99637.47
2022-12-15T07:11:31.880Z,99630.69
2022-12-15T07:13:58.556Z,99632.34
2022-12-15T07:16:25.251Z,99630.69
2022-12-15T07:18:52.354Z,99631.53
2022-12-15T07:21:18.974Z,99633.31
2022-12-15T07:23:54.815Z,99632.44
2022-12-15T07:26:22.532Z,99637.47
2022-12-15T07:28:49.359Z,99631.53
2022-12-15T07:31:16.196Z,99634.94
2022-12-15T07:33:43.229Z,99638.25
2022-12-15T07:36:11.074Z,99649.13
2022-12-15T07:38:37.887Z,99642.34
2022-12-15T07:41:06.886Z,99644.06
2022-12-15T07:43:34.256Z,99657.47
2022-12-15T07:46:01.832Z,99654.94
2022-12-15T07:48:29.271Z,99644.78
2022-12-15T07:51:05.166Z,99653.22
2022-12-15T07:53:36.094Z,99643.03
2022-12-15T07:56:09.308Z,99638.00
2022-12-15T07:58:37.195Z,99640.44
2022-12-15T08:01:10.581Z,99644.69
2022-12-15T08:03:39.134Z,99644.69
2022-12-15T08:06:08.890Z,99639.63
2022-12-15T08:08:36.066Z,99646.44
2022-12-15T08:11:05.637Z,99658.28
2022-12-15T08:16:21.660Z,99657.56
2022-12-15T08:18:49.128Z,99651.72
2022-12-15T08:21:15.884Z,99651.38
2022-12-15T08:23:42.544Z,99651.53
2022-12-15T08:26:13.274Z,99652.19
2022-12-15T08:28:41.041Z,99660.44
2022-12-15T08:31:12.187Z,99658.44
2022-12-15T08:33:39.466Z,99662.53
2022-12-15T08:36:10.201Z,99665.47
2022-12-15T08:38:39.310Z,99674.91
2022-12-15T08:43:49.175Z,99675.72
2022-12-15T08:46:18.020Z,99676.78
2022-12-15T08:48:45.362Z,99673.94
2022-12-15T08:51:12.196Z,99678.47
2022-12-15T08:53:39.001Z,99667.91
2022-12-15T08:56:09.436Z,99684.50
2022-12-15T08:58:36.780Z,99690.72
2022-12-15T09:01:06.389Z,99687.00
2022-12-15T09:03:34.884Z,99694.16
2022-12-15T09:06:04.099Z,99686.63
2022-12-15T09:08:31.213Z,99701.31
2022-12-15T09:10:59.844Z,99693.16
2022-12-15T09:13:27.057Z,99691.66
2022-12-15T09:16:10.251Z,99706.28
2022-12-15T09:18:37.176Z,99709.47
2022-12-15T09:21:05.672Z,99720.94
2022-12-15T09:23:33.117Z,99717.75
2022-12-15T09:26:01.571Z,99719.72
2022-12-15T09:28:30.007Z,99718.19
2022-12-15T09:33:52.319Z,99720.25
2022-12-15T09:36:19.627Z,99725.41
2022-12-15T09:38:46.241Z,99736.56
2022-12-15T09:49:13.915Z,99729.91
2022-12-15T09:51:48.983Z,99734.78
2022-12-15T09:54:15.625Z,99736.13
2022-12-15T09:56:50.598Z,99742.53
2022-12-15T09:59:33.329Z,99740.38
2022-12-15T10:02:34.323Z,99743.22
2022-12-15T10:07:50.600Z,99742.72
2022-12-15T10:10:29.704Z,99747.38
2022-12-15T10:13:02.925Z,99751.94
2022-12-15T10:15:35.805Z,99754.03
2022-12-15T10:20:38.634Z,99758.16
2022-12-15T10:23:13.350Z,99756.91
2022-12-15T10:25:47.380Z,99764.25
2022-12-15T10:34:18.621Z,99759.72
2022-12-15T10:36:51.879Z,99758.03
2022-12-15T10:39:21.232Z,99767.22
2022-12-15T10:42:25.208Z,99763.38
2022-12-15T10:44:54.903Z,99757.25
2022-12-15T10:50:22.614Z,99749.50
2022-12-15T10:52:51.930Z,99750.25
2022-12-15T10:55:40.850Z,99755.94
2022-12-15T10:58:23.630Z,99759.59
2022-12-15T11:01:09.061Z,99756.31
2022-12-15T11:03:39.167Z,99752.09
2022-12-15T11:06:18.139Z,99751.19
2022-12-15T11:08:48.437Z,99747.66
2022-12-15T11:11:54.518Z,99745.69
2022-12-15T11:14:27.221Z,99747.19
2022-12-15T11:16:56.702Z,99741.75
2022-12-15T11:19:39.005Z,99736.22
2022-12-15T11:22:18.908Z,99739.16
2022-12-15T11:24:52.638Z,99732.81
2022-12-15T11:27:28.627Z,99732.50
2022-12-15T11:32:38.966Z,99732.56
2022-12-15T11:35:13.693Z,99728.50
2022-12-15T11:37:46.898Z,99725.97
2022-12-15T11:43:12.882Z,99719.97
2022-12-15T11:48:33.261Z,99721.81
2022-12-15T11:56:43.195Z,99733.00
2022-12-15T12:04:30.732Z,99727.78
2022-12-15T12:07:27.010Z,99717.94
2022-12-15T12:12:40.907Z,99727.66
2022-12-15T12:15:39.085Z,99729.97
2022-12-15T12:18:13.134Z,99725.38
2022-12-15T12:20:48.019Z,99723.41
2022-12-15T12:23:22.407Z,99729.09
2022-12-15T12:26:19.094Z,99726.19
2022-12-15T12:31:36.005Z,99730.00
2022-12-15T12:34:10.908Z,99725.56
2022-12-15T12:36:38.207Z,99732.19
2022-12-15T12:39:05.395Z,99727.72
2022-12-15T12:41:41.126Z,99723.28
2022-12-15T12:46:54.107Z,99726.38
2022-12-15T12:52:03.565Z,99727.03
2022-12-15T13:02:47.143Z,99711.94
2022-12-15T13:05:34.840Z,99713.44
2022-12-15T13:10:42.720Z,99714.41
2022-12-15T13:16:11.900Z,99713.25
2022-12-15T13:19:02.154Z,99719.03
2022-12-15T13:24:45.748Z,99708.44
2022-12-15T13:27:17.355Z,99702.38
2022-12-15T13:30:02.983Z,99709.06
2022-12-15T13:48:41.615Z,99708.34
2022-12-15T13:59:26.587Z,99699.13
2022-12-15T14:01:53.959Z,99697.25
2022-12-15T14:04:22.260Z,99705.66
2022-12-15T14:09:38.375Z,99701.19
2022-12-15T14:12:08.439Z,99703.53
2022-12-15T14:14:42.627Z,99707.75
2022-12-15T14:17:15.412Z,99705.09
2022-12-15T14:19:44.392Z,99706.69
2022-12-15T14:27:52.959Z,99708.91
2022-12-15T14:33:12.028Z,99710.38
2022-12-15T14:35:44.124Z,99709.34
2022-12-15T14:38:21.620Z,99716.94
2022-12-15T14:40:51.951Z,99711.66
2022-12-15T14:43:22.797Z,99713.28
2022-12-15T14:46:07.803Z,99718.16
2022-12-15T14:48:53.630Z,99713.75
2022-12-15T14:51:21.506Z,99722.06
2022-12-15T14:53:53.261Z,99717.69
2022-12-15T15:04:31.276Z,99715.50
2022-12-15T15:07:07.794Z,99722.16
2022-12-15T15:09:43.887Z,99710.13
2022-12-15T15:12:47.233Z,99715.06
2022-12-15T15:15:16.012Z,99714.84
2022-12-15T15:17:52.580Z,99713.91
2022-12-15T15:20:27.239Z,99711.25
2022-12-15T15:25:54.872Z,99710.53
2022-12-15T15:31:35.266Z,99712.66
2022-12-15T15:34:07.686Z,99715.81
2022-12-15T15:36:36.507Z,99719.06
2022-12-15T15:39:12.835Z,99722.31
2022-12-15T15:41:39.411Z,99722.13
2022-12-15T15:44:12.474Z,99724.56
2022-12-15T15:46:48.394Z,99730.28
2022-12-15T15:49:19.158Z,99719.94
2022-12-15T15:51:46.164Z,99717.09
2022-12-15T15:54:17.083Z,99716.13
2022-12-15T15:56:43.683Z,99730.38
2022-12-15T15:59:13.648Z,99732.69
2022-12-15T16:01:40.791Z,99735.94
2022-12-15T16:04:07.606Z,99733.28
2022-12-15T16:06:34.979Z,99728.03
2022-12-15T16:09:02.048Z,99737.22
2022-12-15T16:11:30.997Z,99749.84
2022-12-15T16:13:57.767Z,99748.78
2022-12-15T16:16:30.006Z,99751.25
2022-12-15T16:18:56.644Z,99761.28
2022-12-15T16:21:27.355Z,99761.22
2022-12-15T16:23:55.323Z,99757.72
2022-12-15T16:26:28.889Z,99755.00
2022-12-15T16:28:56.325Z,99756.63
2022-12-15T16:31:41.995Z,99753.16
2022-12-15T16:34:08.834Z,99747.22
2022-12-15T16:36:35.444Z,99758.25
2022-12-15T16:39:02.403Z,99764.13
2022-12-15T16:41:28.964Z,99763.22
2022-12-15T16:43:55.531Z,99765.78
2022-12-15T16:46:22.131Z,99763.09
2022-12-15T16:48:48.904Z,99766.47
2022-12-15T16:51:39.608Z,99763.84
2022-12-15T16:54:07.252Z,99769.78
2022-12-15T16:56:33.890Z,99771.41
2022-12-15T16:59:31.400Z,99769.66
2022-12-15T17:01:48.349Z,99771.28
2022-12-15T17:04:16.706Z,99773.03
2022-12-15T17:06:43.650Z,99775.56
2022-12-15T17:09:18.940Z,99771.41
2022-12-15T17:11:45.625Z,99773.09
2022-12-15T17:14:12.180Z,99779.09
2022-12-15T17:16:38.777Z,99779.97
2022-12-15T17:19:05.351Z,99780.84
2022-12-15T17:21:39.275Z,99785.16
2022-12-15T17:24:08.895Z,99793.50
2022-12-15T17:26:37.059Z,99788.53
2022-12-15T17:29:13.180Z,99796.22
2022-12-15T17:31:39.828Z,99798.06
2022-12-15T17:36:59.507Z,99801.47
2022-12-15T17:39:27.541Z,99795.59
2022-12-15T17:42:00.499Z,99797.44
2022-12-15T17:44:33.751Z,99805.88
2022-12-15T17:47:02.119Z,99800.06
2022-12-15T17:49:34.677Z,99806.00
2022-12-15T17:52:05.231Z,99819.66
2022-12-15T17:54:31.908Z,99818.09
2022-12-15T17:56:58.716Z,99820.69
2022-12-15T17:59:25.377Z,99824.97
2022-12-15T18:01:52.375Z,99825.91
2022-12-15T18:04:19.162Z,99826.88
2022-12-15T18:06:46.090Z,99821.84
2022-12-15T18:09:17.486Z,99821.84
2022-12-15T18:11:46.800Z,99823.63
2022-12-15T18:14:16.515Z,99823.72
2022-12-15T18:16:45.041Z,99835.66
2022-12-15T18:19:11.942Z,99832.41
2022-12-15T18:21:38.663Z,99839.34
2022-12-15T18:24:15.059Z,99844.56
2022-12-15T18:26:41.664Z,99848.91
2022-12-15T18:29:14.165Z,99854.97
2022-12-15T18:31:42.263Z,99858.44
2022-12-15T18:34:12.870Z,99861.91
2022-12-15T18:36:40.123Z,99860.19
2022-12-15T18:39:23.921Z,99867.75
2022-12-15T18:41:51.376Z,99865.91
2022-12-15T18:44:23.968Z,99870.22
2022-12-15T18:46:50.892Z,99880.28
2022-12-15T18:49:19.409Z,99889.78
2022-12-15T18:51:47.001Z,99892.31
2022-12-15T18:54:18.156Z,99890.59
2022-12-15T18:56:44.869Z,99893.13
2022-12-15T18:59:15.859Z,99888.03
2022-12-15T19:01:43.882Z,99890.53
2022-12-15T19:04:10.821Z,99902.41
2022-12-15T19:06:40.425Z,99904.06
2022-12-15T19:09:14.518Z,99904.88
2022-12-15T19:12:01.170Z,99917.53
2022-12-15T19:14:43.468Z,99916.59
2022-12-15T19:17:31.485Z,99922.38
2022-12-15T19:20:18.160Z,99926.53
2022-12-15T19:22:46.560Z,99928.09
2022-12-15T19:25:25.353Z,99927.09
2022-12-15T19:27:58.687Z,99924.44
2022-12-15T19:30:28.435Z,99925.91
2022-12-15T19:32:55.099Z,99938.50
2022-12-15T19:35:23.011Z,99933.16
2022-12-15T19:37:50.086Z,99938.06
2022-12-15T19:40:22.299Z,99941.34
2022-12-15T19:42:49.864Z,99948.84
2022-12-15T19:45:18.635Z,99953.75
2022-12-15T19:47:45.312Z,99944.31
2022-12-15T19:50:17.118Z,99945.00
2022-12-15T19:52:47.155Z,99947.38
2022-12-15T19:55:16.392Z,99952.47
2022-12-15T19:57:43.880Z,99960.78
2022-12-15T20:00:17.990Z,99964.84
2022-12-15T20:02:44.660Z,99963.84
2022-12-15T20:05:11.407Z,99965.44
2022-12-15T20:07:38.181Z,99972.16
2022-12-15T20:10:13.411Z,99979.69
2022-12-15T20:12:42.366Z,99977.03
2022-12-15T20:15:19.313Z,99981.13
2022-12-15T20:17:46.044Z,99985.25
2022-12-15T20:20:16.115Z,99981.78
2022-12-15T20:22:45.421Z,99987.63
2022-12-15T20:25:17.440Z,99994.41
2022-12-15T20:27:44.517Z,99990.84
2022-12-15T20:30:18.447Z,100000.94
2022-12-15T20:32:44.996Z,100003.41
2022-12-15T20:35:14.744Z,100004.06
2022-12-15T20:37:41.315Z,100007.28
2022-12-15T20:42:56.442Z,100007.19
2022-12-15T20:45:25.552Z,100007.09
2022-12-15T20:47:53.861Z,100009.56
2022-12-15T20:53:01.437Z,100011.28
2022-12-15T20:55:28.614Z,100006.22
2022-12-15T20:57:55.551Z,100006.22
2022-12-15T21:00:22.575Z,100004.47
2022-12-15T21:02:50.507Z,100006.22
2022-12-15T21:05:22.489Z,100008.75
2022-12-15T21:07:50.129Z,100008.69
2022-12-15T21:10:18.305Z,100006.06
2022-12-15T21:12:47.616Z,100009.41
2022-12-15T21:15:23.389Z,100012.69
2022-12-15T21:18:11.004Z,100016.81
2022-12-15T21:20:41.596Z,100012.47
2022-12-15T21:23:19.771Z,100029.31
2022-12-15T21:25:47.338Z,100027.56
2022-12-15T21:28:14.582Z,100032.63
2022-12-15T21:30:41.739Z,100033.44
2022-12-15T21:33:08.451Z,100032.63
2022-12-15T21:35:36.469Z,100041.78
2022-12-15T21:38:04.583Z,100037.38
2022-12-15T21:40:31.258Z,100033.94
2022-12-15T21:42:58.096Z,100037.28
2022-12-15T21:45:26.679Z,100034.75
2022-12-15T21:48:13.700Z,100040.63
2022-12-15T21:50:43.297Z,100039.84
2022-12-15T21:53:15.913Z,100040.75
2022-12-15T21:55:44.530Z,100038.28
2022-12-15T21:58:18.612Z,100037.50
2022-12-15T22:00:45.901Z,100040.91
2022-12-15T22:03:12.886Z,100043.38
2022-12-15T22:05:40.007Z,100042.53
2022-12-15T22:08:17.234Z,100041.56
2022-12-15T22:10:45.703Z,100044.09
2022-12-15T22:13:17.766Z,100041.63
2022-12-15T22:15:44.986Z,100044.19
2022-12-15T22:18:19.335Z,100045.06
2022-12-15T22:20:48.252Z,100048.44
2022-12-15T22:23:16.863Z,100051.00
2022-12-15T22:25:43.730Z,100056.00
2022-12-15T22:28:18.794Z,100069.50
2022-12-15T22:30:45.652Z,100063.53
2022-12-15T22:33:21.700Z,100067.75
2022-12-15T22:35:50.685Z,100070.38
2022-12-15T22:38:18.955Z,100067.91
2022-12-15T22:40:49.121Z,100060.22
2022-12-15T22:46:04.939Z,100067.03
2022-12-15T22:48:35.284Z,100061.88
2022-12-15T22:51:02.063Z,100064.34
2022-12-15T22:53:31.692Z,100060.94
2022-12-15T22:55:59.771Z,100069.34
2022-12-15T22:58:34.868Z,100068.56
2022-12-15T23:01:02.139Z,100072.84
2022-12-15T23:03:29.979Z,100075.53
2022-12-15T23:05:56.858Z,100079.81
2022-12-15T23:08:23.530Z,100074.72
2022-12-15T23:11:09.991Z,100076.47
2022-12-15T23:13:36.622Z,100076.63
2022-12-15T23:16:20.416Z,100077.41
2022-12-15T23:18:51.672Z,100078.19
2022-12-15T23:21:19.429Z,100076.47
2022-12-15T23:23:46.143Z,100083.28
2022-12-15T23:26:13.864Z,100078.19
2022-12-15T23:28:41.342Z,100078.28
2022-12-15T23:31:08.930Z,100075.66
2022-12-15T23:33:36.423Z,100080.69
2022-12-15T23:36:03.391Z,100079.81
2022-12-15T23:38:30.431Z,100080.63
2022-12-15T23:40:58.018Z,100083.16
2022-12-15T23:43:27.497Z,100085.69
2022-12-15T23:48:37.969Z,100088.34
2022-12-15T23:51:05.698Z,100078.94
2022-12-15T23:53:33.229Z,100084.88
2022-12-15T23:56:18.841Z,100096.63
2022-12-15T23:58:46.876Z,100083.94
